Map

Track Data

SID SEASON NUMBER BASIN SUBBASIN NAME ISO_TIME NATURE LAT LON WMO_WIND WMO_PRES WMO_AGENCY TRACK_TYPE DIST2LAND LANDFALL IFLAG USA_AGENCY USA_ATCF_ID USA_LAT USA_LON USA_RECORD USA_STATUS USA_WIND USA_PRES USA_SSHS USA_R34_NE USA_R34_SE USA_R34_SW USA_R34_NW USA_R50_NE USA_R50_SE USA_R50_SW USA_R50_NW USA_R64_NE USA_R64_SE USA_R64_SW USA_R64_NW USA_POCI USA_ROCI USA_RMW USA_EYE TOKYO_LAT TOKYO_LON TOKYO_GRADE TOKYO_WIND TOKYO_PRES TOKYO_R50_DIR TOKYO_R50_LONG TOKYO_R50_SHORT TOKYO_R30_DIR TOKYO_R30_LONG TOKYO_R30_SHORT TOKYO_LAND CMA_LAT CMA_LON CMA_CAT CMA_WIND CMA_PRES HKO_LAT HKO_LON HKO_CAT HKO_WIND HKO_PRES NEWDELHI_LAT NEWDELHI_LON NEWDELHI_GRADE NEWDELHI_WIND NEWDELHI_PRES NEWDELHI_CI NEWDELHI_DP NEWDELHI_POCI REUNION_LAT REUNION_LON REUNION_TYPE REUNION_WIND REUNION_PRES REUNION_TNUM REUNION_CI REUNION_RMW REUNION_R34_NE REUNION_R34_SE REUNION_R34_SW REUNION_R34_NW REUNION_R50_NE REUNION_R50_SE REUNION_R50_SW REUNION_R50_NW REUNION_R64_NE REUNION_R64_SE REUNION_R64_SW REUNION_R64_NW BOM_LAT BOM_LON BOM_TYPE BOM_WIND BOM_PRES BOM_TNUM BOM_CI BOM_RMW BOM_R34_NE BOM_R34_SE BOM_R34_SW BOM_R34_NW BOM_R50_NE BOM_R50_SE BOM_R50_SW BOM_R50_NW BOM_R64_NE BOM_R64_SE BOM_R64_SW BOM_R64_NW BOM_ROCI BOM_POCI BOM_EYE BOM_POS_METHOD BOM_PRES_METHOD NADI_LAT NADI_LON NADI_CAT NADI_WIND NADI_PRES WELLINGTON_LAT WELLINGTON_LON WELLINGTON_WIND WELLINGTON_PRES DS824_LAT DS824_LON DS824_STAGE DS824_WIND DS824_PRES TD9636_LAT TD9636_LON TD9636_STAGE TD9636_WIND TD9636_PRES TD9635_LAT TD9635_LON TD9635_WIND TD9635_PRES TD9635_ROCI NEUMANN_LAT NEUMANN_LON NEUMANN_CLASS NEUMANN_WIND NEUMANN_PRES MLC_LAT MLC_LON MLC_CLASS MLC_WIND MLC_PRES USA_GUST BOM_GUST BOM_GUST_PER REUNION_GUST REUNION_GUST_PER USA_SEAHGT USA_SEARAD_NE USA_SEARAD_SE USA_SEARAD_SW USA_SEARAD_NW STORM_SPEED STORM_DIR
1992241N11253 1992 76 EP MM NEWTON 1992-08-27 12:00:00 TS 11.1000 -107.300 25 1011 hurdat_epa main 903 903 O_____________ hurdat_epa EP161992 11.1000 -107.300 TD 25 1011 -1 11 269
1992241N11253 1992 76 EP MM NEWTON 1992-08-27 15:00:00 TS 11.0852 -107.883 main 934 934 P_____________ EP161992 11.0852 -107.883 TD 27 1010 -1 12 270
1992241N11253 1992 76 EP MM NEWTON 1992-08-27 18:00:00 TS 11.1000 -108.500 30 1010 hurdat_epa main 968 968 O_____________ hurdat_epa EP161992 11.1000 -108.500 TD 30 1010 -1 13 274
1992241N11253 1992 76 EP MM NEWTON 1992-08-27 21:00:00 TS 11.1699 -109.178 main 1003 1003 P_____________ EP161992 11.1699 -109.178 TD 30 1009 -1 14 278
1992241N11253 1992 76 EP MM NEWTON 1992-08-28 00:00:00 TS 11.3000 -109.900 30 1009 hurdat_epa main 1039 1039 O_____________ hurdat_epa EP161992 11.3000 -109.900 TD 30 1009 -1 15 282
1992241N11253 1992 76 EP MM NEWTON 1992-08-28 03:00:00 TS 11.4849 -110.642 main 1062 1062 P_____________ EP161992 11.4849 -110.642 TD 32 1008 -1 15 285
1992241N11253 1992 76 EP MM NEWTON 1992-08-28 06:00:00 TS 11.7000 -111.400 35 1007 hurdat_epa main 1097 1097 O_____________ hurdat_epa EP161992 11.7000 -111.400 TS 35 1007 0 15 286
1992241N11253 1992 76 EP MM NEWTON 1992-08-28 09:00:00 TS 11.9148 -112.150 main 1130 1130 P_____________ EP161992 11.9148 -112.150 TS 35 1006 0 15 285
1992241N11253 1992 76 EP MM NEWTON 1992-08-28 12:00:00 TS 12.1000 -112.900 35 1006 hurdat_epa main 1175 1175 O_____________ hurdat_epa EP161992 12.1000 -112.900 TS 35 1006 0 15 282
1992241N11253 1992 76 EP MM NEWTON 1992-08-28 15:00:00 TS 12.2297 -113.643 main 1221 1221 P_____________ EP161992 12.2297 -113.643 TS 35 1005 0 15 278
1992241N11253 1992 76 EP MM NEWTON 1992-08-28 18:00:00 TS 12.3000 -114.400 35 1005 hurdat_epa main 1274 1274 O_____________ hurdat_epa EP161992 12.3000 -114.400 TS 35 1005 0 15 273
1992241N11253 1992 76 EP MM NEWTON 1992-08-28 21:00:00 TS 12.3075 -115.208 main 1307 1307 P_____________ EP161992 12.3075 -115.208 TS 35 1004 0 16 270
1992241N11253 1992 76 EP MM NEWTON 1992-08-29 00:00:00 TS 12.3000 -116.000 35 1004 hurdat_epa main 1345 1345 O_____________ hurdat_epa EP161992 12.3000 -116.000 TS 35 1004 0 15 270
1992241N11253 1992 76 EP MM NEWTON 1992-08-29 03:00:00 TS 12.3198 -116.730 main 1381 1381 P_____________ EP161992 12.3198 -116.730 TS 37 1003 0 14 274
1992241N11253 1992 76 EP MM NEWTON 1992-08-29 06:00:00 TS 12.4000 -117.400 40 1003 hurdat_epa main 1411 1411 O_____________ hurdat_epa EP161992 12.4000 -117.400 TS 40 1003 0 13 282
1992241N11253 1992 76 EP MM NEWTON 1992-08-29 09:00:00 TS 12.5923 -118.015 main 1429 1429 P_____________ EP161992 12.5923 -118.015 TS 40 1002 0 12 289
1992241N11253 1992 76 EP MM NEWTON 1992-08-29 12:00:00 TS 12.8000 -118.600 40 1002 hurdat_epa main 1450 1450 O_____________ hurdat_epa EP161992 12.8000 -118.600 TS 40 1002 0 12 286
1992241N11253 1992 76 EP MM NEWTON 1992-08-29 15:00:00 TS 12.9148 -119.193 main 1482 1482 P_____________ EP161992 12.9148 -119.193 TS 42 1001 0 12 280
1992241N11253 1992 76 EP MM NEWTON 1992-08-29 18:00:00 TS 13.0000 -119.800 45 1001 hurdat_epa main 1515 1515 O_____________ hurdat_epa EP161992 13.0000 -119.800 TS 45 1001 0 12 279
1992241N11253 1992 76 EP MM NEWTON 1992-08-29 21:00:00 TS 13.0999 -120.443 main 1551 1551 P_____________ EP161992 13.0999 -120.443 TS 45 1000 0 13 279
1992241N11253 1992 76 EP MM NEWTON 1992-08-30 00:00:00 TS 13.2000 -121.100 45 1000 hurdat_epa main 1595 1595 O_____________ hurdat_epa EP161992 13.2000 -121.100 TS 45 1000 0 13 279
1992241N11253 1992 76 EP MM NEWTON 1992-08-30 03:00:00 TS 13.2922 -121.735 main 1624 1624 P_____________ EP161992 13.2922 -121.735 TS 45 999 0 13 279
1992241N11253 1992 76 EP MM NEWTON 1992-08-30 06:00:00 TS 13.4000 -122.400 45 999 hurdat_epa main 1662 1662 O_____________ hurdat_epa EP161992 13.4000 -122.400 TS 45 999 0 14 280
1992241N11253 1992 76 EP MM NEWTON 1992-08-30 09:00:00 TS 13.5348 -123.128 main 1702 1701 P_____________ EP161992 13.5348 -123.128 TS 45 999 0 15 282
1992241N11253 1992 76 EP MM NEWTON 1992-08-30 12:00:00 TS 13.7000 -123.900 45 1000 hurdat_epa main 1744 1744 O_____________ hurdat_epa EP161992 13.7000 -123.900 TS 45 1000 0 16 283
1992241N11253 1992 76 EP MM NEWTON 1992-08-30 15:00:00 TS 13.8922 -124.685 main 1788 1788 P_____________ EP161992 13.8922 -124.685 TS 45 1000 0 16 284
1992241N11253 1992 76 EP MM NEWTON 1992-08-30 18:00:00 TS 14.1000 -125.500 45 1001 hurdat_epa main 1835 1835 O_____________ hurdat_epa EP161992 14.1000 -125.500 TS 45 1001 0 17 284
1992241N11253 1992 76 EP MM NEWTON 1992-08-30 21:00:00 TS 14.2997 -126.335 main 1884 1884 P_____________ EP161992 14.2997 -126.335 TS 42 1001 0 17 284
1992241N11253 1992 76 EP MM NEWTON 1992-08-31 00:00:00 TS 14.5000 -127.200 40 1002 hurdat_epa main 1941 1941 O_____________ hurdat_epa EP161992 14.5000 -127.200 TS 40 1002 0 18 284
1992241N11253 1992 76 EP MM NEWTON 1992-08-31 03:00:00 TS 14.7296 -128.085 main 1985 1984 P_____________ EP161992 14.7296 -128.085 TS 37 1003 0 18 283
1992241N11253 1992 76 EP MM NEWTON 1992-08-31 06:00:00 TS 14.9000 -129.000 35 1004 hurdat_epa main 2033 2033 O_____________ hurdat_epa EP161992 14.9000 -129.000 TS 35 1004 0 18 276
1992241N11253 1992 76 EP MM NEWTON 1992-08-31 09:00:00 TS 14.9300 -129.965 main 2108 2108 P_____________ EP161992 14.9300 -129.965 TS 32 1005 -1 18 270
1992241N11253 1992 76 EP MM NEWTON 1992-08-31 12:00:00 TS 14.9000 -130.900 30 1007 hurdat_epa main 2177 2177 O_____________ hurdat_epa EP161992 14.9000 -130.900 TD 30 1007 -1 17 269
1992241N11253 1992 76 EP MM NEWTON 1992-08-31 15:00:00 TS 14.8903 -131.732 main 2240 2240 P_____________ EP161992 14.8903 -131.732 TD 27 1008 -1 15 270
1992241N11253 1992 76 EP MM NEWTON 1992-08-31 18:00:00 TS 14.9000 -132.500 25 1010 hurdat_epa main 2304 O_____________ hurdat_epa EP161992 14.9000 -132.500 TD 25 1010 -1 15 271

About IBTrACS Database

This database is a web-friendly format of International Best Track Archive for Climate Stewardship (IBTrACS), a global best track data archive curated by NOAA dating back to 1842.

Updated: 2021-12-01